Sagamore Beach, Massachusetts
Current Conditions -  °F | °C
As of 10:35 PM on Saturday 24 Jan 2015 (Local Time) from KFMH Reporting Station
Overcast Overcast  
Wind Chill: 24°   Ceiling: 4500
Heat Index: 32°   Visibility: 10mi
Dew Point: 30°   Wind: 9mph
Humidity: 93%   Direction: 310°NW
Pressure: 29.26"   Gusts: 17mph
Location:  41.8°N, 70.53°W
Report Text: KFMH 250335Z 31008G15KT 10SM SCT039 OVC045 00/M01 A2926 RMK AO2 PRESFR
Loading
Personal Weather Stations






























Interactive Weather Map New forecast layout! Learn more

10-Day Weather Forecast

Advertisements
Track Severe Weather on mobile